BENVENUTI AL 154° GRUPPO VIRTUALE
  • Home
  • Il Blog
  • Blog
  • Adddestramento attività congiunta tra velivoli A-200A e T-346
Thursday, 03 October 2019 10:24

Adddestramento attività congiunta tra velivoli A-200A e T-346

Written by
Rate this item
(0 votes)
Fonte: Aeronautica Militare  Nei giorni 2 e 3 settembre, per la prima volta un velivolo di addestramento T-346A del 61° Stormo di Galatina (LE), si è rischierato sull'Aerobase di Ghedi per svolgere una attività congiunta con i velivoli Tornado del 102° Gruppo OCU (Operational Conversion Unit). Tale attività, tesa ad armonizzare il percorso formativo degli equipaggi di volo, ha visto l'impiego di una coppia di Tornado, in missione di attacco simulato "Aria-Suolo", dietro le linee nemiche, ed un velivolo T-346A come forza aerea opponente. A supporto delle missioni, svolte in aree regolamentate sul Mare Adriatico, con funzione di Comando e Controllo il GCI (Ground Controller Interceptor), denominato "Pioppo Radar" dell'11° Gruppo Radar di Poggio Renatico. Le sortite effettuate rientrano nel programma addestrativo dei piloti militari che frequentano il 18° CCO (Corso di Conversione Operativa) per il conseguimento della LCR (Limited Combat Readiness) nel ruolo di attacco ognitempo su velivolo Tornado. Nel corso delle operazioni, grazie alla versatilità e alla flessibilità d'impiego del T-346, sono state simulate minacce Aria-Aria ad alte prestazioni, equipaggiate con armamento a guida passiva, semi-attiva ed attiva. La possibilità di poter operare dalla medesima base in missioni avanzate con un numero minimo di assetti ha permesso di ottimizzare l'addestramento degli equipaggi coinvolti anche nelle fasi di pianificazione, briefing pre-volo e de-briefing post-volo. Infine, l'attività svolta ha consentito agli istruttori del 102° Gruppo OCU di poter scambiare preziose esperienze professionali e potersi confrontare con le altre entità in campo allo scopo di migliorare il livello di standardizzazione tra i reparti operativi e perfezionare di conseguenza i Syllabus addestrativi e le TTP's (Tactics, Techniques & Procedure's). Articolo originale: http://www.aeronautica.difesa.it/comunicazione/notizie/Pagine/addestramento-ghedi.aspx
Read 1484 times Last modified on Thursday, 03 October 2019 08:24

1 comment

Leave a comment

Make sure you enter all the required information, indicated by an asterisk (*). HTML code is not allowed.

METAR & TAF

[Source: ADDS]
METAR
LIPL 122255Z 07007KT CAVOK 20/18 Q1014 RMK SKC VIS MIN 9999 WIND THR31 07006KT WIND THR13 07006KT BLU =
LIPL 122300Z 1300/1309 05008KT CAVOK BECMG 1302/1304 27005KT
TAF
LIPL 122300Z 1300/1309 05008KT CAVOK BECMG 1302/1304 27005KT =

Notice: Undefined index: sun in /web/htdocs/www.154gruppovirtuale.it/home/modules/mod_wx/tmpl/default.php on line 13

Official Tools

CombatFlite Logo  
 
   

Network

Simulation Platform